sensor_id;sensor_type;location;lat;lon;timestamp;P1;durP1;ratioP1;P2;durP2;ratioP2
9848;SDS011;4963;51.444;6.528;2023-02-28T00:00:49;6.40;;;4.13;;
9848;SDS011;4963;51.444;6.528;2023-02-28T00:03:16;5.60;;;3.83;;
9848;SDS011;4963;51.444;6.528;2023-02-28T00:05:44;5.97;;;4.27;;
9848;SDS011;4963;51.444;6.528;2023-02-28T00:08:11;4.93;;;3.90;;
9848;SDS011;4963;51.444;6.528;2023-02-28T00:10:38;5.83;;;3.73;;
9848;SDS011;4963;51.444;6.528;2023-02-28T00:13:05;7.03;;;4.17;;
9848;SDS011;4963;51.444;6.528;2023-02-28T00:15:33;6.57;;;4.13;;
9848;SDS011;4963;51.444;6.528;2023-02-28T00:18:00;8.20;;;4.40;;
9848;SDS011;4963;51.444;6.528;2023-02-28T00:20:27;4.33;;;3.50;;
9848;SDS011;4963;51.444;6.528;2023-02-28T00:22:55;6.37;;;4.00;;
9848;SDS011;4963;51.444;6.528;2023-02-28T00:25:23;6.40;;;4.23;;
9848;SDS011;4963;51.444;6.528;2023-02-28T00:27:51;5.03;;;3.20;;
9848;SDS011;4963;51.444;6.528;2023-02-28T00:30:19;5.60;;;4.23;;
9848;SDS011;4963;51.444;6.528;2023-02-28T00:32:47;5.33;;;3.77;;
9848;SDS011;4963;51.444;6.528;2023-02-28T00:35:14;5.73;;;3.87;;
9848;SDS011;4963;51.444;6.528;2023-02-28T00:37:41;6.60;;;4.07;;
9848;SDS011;4963;51.444;6.528;2023-02-28T00:40:10;5.47;;;4.07;;
9848;SDS011;4963;51.444;6.528;2023-02-28T00:42:38;6.23;;;4.10;;
9848;SDS011;4963;51.444;6.528;2023-02-28T00:45:05;6.77;;;4.33;;
9848;SDS011;4963;51.444;6.528;2023-02-28T00:47:33;4.73;;;3.57;;
9848;SDS011;4963;51.444;6.528;2023-02-28T00:50:00;6.73;;;4.00;;
9848;SDS011;4963;51.444;6.528;2023-02-28T00:52:27;10.57;;;3.53;;
9848;SDS011;4963;51.444;6.528;2023-02-28T00:54:54;4.87;;;3.60;;
9848;SDS011;4963;51.444;6.528;2023-02-28T00:57:22;5.83;;;3.83;;
9848;SDS011;4963;51.444;6.528;2023-02-28T00:59:49;7.03;;;3.97;;
9848;SDS011;4963;51.444;6.528;2023-02-28T01:02:16;8.77;;;4.77;;
9848;SDS011;4963;51.444;6.528;2023-02-28T01:04:45;5.17;;;3.73;;
9848;SDS011;4963;51.444;6.528;2023-02-28T01:07:12;9.37;;;3.80;;
9848;SDS011;4963;51.444;6.528;2023-02-28T01:09:39;6.70;;;4.03;;
9848;SDS011;4963;51.444;6.528;2023-02-28T01:12:06;9.57;;;3.97;;
9848;SDS011;4963;51.444;6.528;2023-02-28T01:14:35;5.13;;;3.63;;
9848;SDS011;4963;51.444;6.528;2023-02-28T01:17:02;7.33;;;4.00;;
9848;SDS011;4963;51.444;6.528;2023-02-28T01:19:29;6.57;;;4.03;;
9848;SDS011;4963;51.444;6.528;2023-02-28T01:21:56;5.90;;;4.30;;
9848;SDS011;4963;51.444;6.528;2023-02-28T01:24:23;5.47;;;3.80;;
9848;SDS011;4963;51.444;6.528;2023-02-28T01:26:49;5.93;;;3.80;;
9848;SDS011;4963;51.444;6.528;2023-02-28T01:29:16;8.93;;;4.30;;
9848;SDS011;4963;51.444;6.528;2023-02-28T01:31:44;6.60;;;4.17;;
9848;SDS011;4963;51.444;6.528;2023-02-28T01:34:11;5.60;;;3.73;;
9848;SDS011;4963;51.444;6.528;2023-02-28T01:36:38;6.17;;;3.53;;
9848;SDS011;4963;51.444;6.528;2023-02-28T01:39:05;5.93;;;4.13;;
9848;SDS011;4963;51.444;6.528;2023-02-28T01:41:32;6.03;;;4.20;;
9848;SDS011;4963;51.444;6.528;2023-02-28T01:44:01;7.77;;;3.87;;
9848;SDS011;4963;51.444;6.528;2023-02-28T01:46:30;5.07;;;3.60;;
9848;SDS011;4963;51.444;6.528;2023-02-28T01:49:01;6.50;;;4.00;;
9848;SDS011;4963;51.444;6.528;2023-02-28T01:51:33;7.80;;;4.00;;
9848;SDS011;4963;51.444;6.528;2023-02-28T01:54:11;5.73;;;4.10;;
9848;SDS011;4963;51.444;6.528;2023-02-28T01:56:43;4.80;;;3.70;;
9848;SDS011;4963;51.444;6.528;2023-02-28T01:59:17;8.37;;;4.23;;
9848;SDS011;4963;51.444;6.528;2023-02-28T02:01:50;7.23;;;4.23;;
9848;SDS011;4963;51.444;6.528;2023-02-28T02:04:18;6.60;;;4.13;;
9848;SDS011;4963;51.444;6.528;2023-02-28T02:06:47;4.87;;;3.80;;
9848;SDS011;4963;51.444;6.528;2023-02-28T02:09:15;7.10;;;4.47;;
9848;SDS011;4963;51.444;6.528;2023-02-28T02:11:42;6.47;;;4.60;;
9848;SDS011;4963;51.444;6.528;2023-02-28T02:14:13;6.80;;;4.13;;
9848;SDS011;4963;51.444;6.528;2023-02-28T02:17:02;5.50;;;3.63;;
9848;SDS011;4963;51.444;6.528;2023-02-28T02:19:44;5.57;;;3.90;;
9848;SDS011;4963;51.444;6.528;2023-02-28T02:22:37;5.07;;;3.27;;
9848;SDS011;4963;51.444;6.528;2023-02-28T02:25:23;7.80;;;4.03;;
9848;SDS011;4963;51.444;6.528;2023-02-28T02:31:04;9.53;;;4.10;;
9848;SDS011;4963;51.444;6.528;2023-02-28T02:34:05;8.27;;;4.47;;
9848;SDS011;4963;51.444;6.528;2023-02-28T02:36:49;8.57;;;4.60;;
9848;SDS011;4963;51.444;6.528;2023-02-28T02:39:23;8.87;;;4.47;;
9848;SDS011;4963;51.444;6.528;2023-02-28T02:41:57;9.80;;;4.13;;
9848;SDS011;4963;51.444;6.528;2023-02-28T02:44:27;6.13;;;4.47;;
9848;SDS011;4963;51.444;6.528;2023-02-28T02:46:58;13.80;;;4.07;;
9848;SDS011;4963;51.444;6.528;2023-02-28T02:49:31;6.97;;;4.20;;
9848;SDS011;4963;51.444;6.528;2023-02-28T02:52:00;7.03;;;3.67;;
9848;SDS011;4963;51.444;6.528;2023-02-28T02:54:31;5.13;;;3.90;;
9848;SDS011;4963;51.444;6.528;2023-02-28T02:57:01;5.77;;;3.70;;
9848;SDS011;4963;51.444;6.528;2023-02-28T02:59:34;5.40;;;3.50;;
9848;SDS011;4963;51.444;6.528;2023-02-28T03:02:04;4.37;;;3.57;;
9848;SDS011;4963;51.444;6.528;2023-02-28T03:04:38;6.70;;;4.00;;
9848;SDS011;4963;51.444;6.528;2023-02-28T03:07:09;6.07;;;3.53;;
9848;SDS011;4963;51.444;6.528;2023-02-28T03:09:35;5.23;;;3.90;;
9848;SDS011;4963;51.444;6.528;2023-02-28T03:12:02;7.03;;;3.90;;
9848;SDS011;4963;51.444;6.528;2023-02-28T03:14:35;7.63;;;3.73;;
9848;SDS011;4963;51.444;6.528;2023-02-28T03:17:17;7.50;;;3.97;;
9848;SDS011;4963;51.444;6.528;2023-02-28T03:19:58;6.20;;;3.73;;
9848;SDS011;4963;51.444;6.528;2023-02-28T03:22:40;6.17;;;3.77;;
9848;SDS011;4963;51.444;6.528;2023-02-28T03:25:19;8.47;;;4.07;;
9848;SDS011;4963;51.444;6.528;2023-02-28T03:27:55;10.20;;;4.67;;
9848;SDS011;4963;51.444;6.528;2023-02-28T03:30:31;6.60;;;4.23;;
9848;SDS011;4963;51.444;6.528;2023-02-28T03:33:06;10.23;;;4.00;;
9848;SDS011;4963;51.444;6.528;2023-02-28T03:35:39;7.20;;;4.20;;
9848;SDS011;4963;51.444;6.528;2023-02-28T03:38:11;6.77;;;4.00;;
9848;SDS011;4963;51.444;6.528;2023-02-28T03:40:41;5.97;;;3.87;;
9848;SDS011;4963;51.444;6.528;2023-02-28T03:43:12;6.60;;;3.90;;
9848;SDS011;4963;51.444;6.528;2023-02-28T03:45:45;11.00;;;4.50;;
9848;SDS011;4963;51.444;6.528;2023-02-28T03:48:15;6.80;;;4.00;;
9848;SDS011;4963;51.444;6.528;2023-02-28T03:50:48;6.77;;;3.80;;
9848;SDS011;4963;51.444;6.528;2023-02-28T03:53:21;6.03;;;3.57;;
9848;SDS011;4963;51.444;6.528;2023-02-28T03:55:52;5.40;;;4.20;;
9848;SDS011;4963;51.444;6.528;2023-02-28T03:58:24;9.33;;;3.70;;
9848;SDS011;4963;51.444;6.528;2023-02-28T04:00:55;10.17;;;4.20;;
9848;SDS011;4963;51.444;6.528;2023-02-28T04:03:25;5.67;;;3.40;;
9848;SDS011;4963;51.444;6.528;2023-02-28T04:05:54;6.13;;;3.77;;
9848;SDS011;4963;51.444;6.528;2023-02-28T04:08:22;6.73;;;4.10;;
9848;SDS011;4963;51.444;6.528;2023-02-28T04:10:50;6.80;;;4.00;;
9848;SDS011;4963;51.444;6.528;2023-02-28T04:13:21;9.67;;;4.50;;
9848;SDS011;4963;51.444;6.528;2023-02-28T04:15:48;5.90;;;3.83;;
9848;SDS011;4963;51.444;6.528;2023-02-28T04:18:15;9.73;;;3.73;;
9848;SDS011;4963;51.444;6.528;2023-02-28T04:20:42;5.30;;;3.70;;
9848;SDS011;4963;51.444;6.528;2023-02-28T04:23:10;5.20;;;3.87;;
9848;SDS011;4963;51.444;6.528;2023-02-28T04:25:36;5.07;;;3.57;;
9848;SDS011;4963;51.444;6.528;2023-02-28T04:28:05;5.17;;;3.53;;
9848;SDS011;4963;51.444;6.528;2023-02-28T04:30:32;5.70;;;3.53;;
9848;SDS011;4963;51.444;6.528;2023-02-28T04:32:59;6.00;;;3.70;;
9848;SDS011;4963;51.444;6.528;2023-02-28T04:35:26;6.10;;;4.07;;
9848;SDS011;4963;51.444;6.528;2023-02-28T04:37:52;5.73;;;3.90;;
9848;SDS011;4963;51.444;6.528;2023-02-28T04:40:21;5.80;;;3.33;;
9848;SDS011;4963;51.444;6.528;2023-02-28T04:42:47;5.77;;;3.40;;
9848;SDS011;4963;51.444;6.528;2023-02-28T04:45:14;4.60;;;3.37;;
9848;SDS011;4963;51.444;6.528;2023-02-28T04:47:42;5.27;;;3.43;;
9848;SDS011;4963;51.444;6.528;2023-02-28T04:50:09;7.40;;;3.60;;
9848;SDS011;4963;51.444;6.528;2023-02-28T04:52:36;4.57;;;3.43;;
9848;SDS011;4963;51.444;6.528;2023-02-28T04:55:03;5.87;;;3.27;;
9848;SDS011;4963;51.444;6.528;2023-02-28T04:57:32;5.27;;;3.47;;
9848;SDS011;4963;51.444;6.528;2023-02-28T04:59:59;5.17;;;3.50;;
9848;SDS011;4963;51.444;6.528;2023-02-28T05:02:26;6.77;;;4.20;;
9848;SDS011;4963;51.444;6.528;2023-02-28T05:04:53;8.20;;;3.50;;
9848;SDS011;4963;51.444;6.528;2023-02-28T05:07:19;5.07;;;3.50;;
9848;SDS011;4963;51.444;6.528;2023-02-28T05:09:46;7.60;;;3.40;;
9848;SDS011;4963;51.444;6.528;2023-02-28T05:12:13;4.63;;;3.20;;
9848;SDS011;4963;51.444;6.528;2023-02-28T05:14:42;6.63;;;3.60;;
9848;SDS011;4963;51.444;6.528;2023-02-28T05:17:09;5.90;;;3.17;;
9848;SDS011;4963;51.444;6.528;2023-02-28T05:19:36;5.27;;;3.03;;
9848;SDS011;4963;51.444;6.528;2023-02-28T05:22:02;4.33;;;3.47;;
9848;SDS011;4963;51.444;6.528;2023-02-28T05:24:29;4.07;;;2.90;;
9848;SDS011;4963;51.444;6.528;2023-02-28T05:26:56;4.53;;;2.90;;
9848;SDS011;4963;51.444;6.528;2023-02-28T05:29:23;5.60;;;2.63;;
9848;SDS011;4963;51.444;6.528;2023-02-28T05:31:51;7.03;;;3.00;;
9848;SDS011;4963;51.444;6.528;2023-02-28T05:34:18;3.47;;;2.77;;
9848;SDS011;4963;51.444;6.528;2023-02-28T05:36:45;4.30;;;3.20;;
9848;SDS011;4963;51.444;6.528;2023-02-28T05:39:12;5.67;;;3.23;;
9848;SDS011;4963;51.444;6.528;2023-02-28T05:41:42;7.00;;;3.20;;
9848;SDS011;4963;51.444;6.528;2023-02-28T05:44:09;9.10;;;3.50;;
9848;SDS011;4963;51.444;6.528;2023-02-28T05:46:36;6.03;;;3.00;;
9848;SDS011;4963;51.444;6.528;2023-02-28T05:49:04;4.83;;;3.00;;
9848;SDS011;4963;51.444;6.528;2023-02-28T05:51:31;6.67;;;3.90;;
9848;SDS011;4963;51.444;6.528;2023-02-28T05:53:59;6.07;;;4.07;;
9848;SDS011;4963;51.444;6.528;2023-02-28T05:56:27;4.00;;;2.70;;
9848;SDS011;4963;51.444;6.528;2023-02-28T05:58:54;4.83;;;3.27;;
9848;SDS011;4963;51.444;6.528;2023-02-28T06:01:22;6.00;;;3.47;;
9848;SDS011;4963;51.444;6.528;2023-02-28T06:03:51;9.03;;;3.70;;
9848;SDS011;4963;51.444;6.528;2023-02-28T06:06:19;5.83;;;3.53;;
9848;SDS011;4963;51.444;6.528;2023-02-28T06:08:46;7.20;;;3.40;;
9848;SDS011;4963;51.444;6.528;2023-02-28T06:11:13;6.30;;;3.27;;
9848;SDS011;4963;51.444;6.528;2023-02-28T06:13:39;7.63;;;3.00;;
9848;SDS011;4963;51.444;6.528;2023-02-28T06:16:07;4.40;;;2.80;;
9848;SDS011;4963;51.444;6.528;2023-02-28T06:18:36;7.77;;;2.93;;
9848;SDS011;4963;51.444;6.528;2023-02-28T06:21:03;7.93;;;3.13;;
9848;SDS011;4963;51.444;6.528;2023-02-28T06:23:31;4.40;;;2.90;;
9848;SDS011;4963;51.444;6.528;2023-02-28T06:25:58;3.30;;;2.87;;
9848;SDS011;4963;51.444;6.528;2023-02-28T06:28:25;5.87;;;2.93;;
9848;SDS011;4963;51.444;6.528;2023-02-28T06:30:52;4.63;;;2.70;;
9848;SDS011;4963;51.444;6.528;2023-02-28T06:33:19;3.13;;;2.40;;
9848;SDS011;4963;51.444;6.528;2023-02-28T06:35:46;4.60;;;2.90;;
9848;SDS011;4963;51.444;6.528;2023-02-28T06:38:13;6.27;;;2.93;;
9848;SDS011;4963;51.444;6.528;2023-02-28T06:40:41;5.23;;;2.60;;
9848;SDS011;4963;51.444;6.528;2023-02-28T06:43:08;6.53;;;3.03;;
9848;SDS011;4963;51.444;6.528;2023-02-28T06:45:40;4.87;;;3.03;;
9848;SDS011;4963;51.444;6.528;2023-02-28T06:48:08;4.47;;;3.07;;
9848;SDS011;4963;51.444;6.528;2023-02-28T06:50:35;3.63;;;2.93;;
9848;SDS011;4963;51.444;6.528;2023-02-28T06:53:02;4.23;;;2.83;;
9848;SDS011;4963;51.444;6.528;2023-02-28T06:55:29;4.93;;;2.90;;
9848;SDS011;4963;51.444;6.528;2023-02-28T06:57:57;8.00;;;3.33;;
9848;SDS011;4963;51.444;6.528;2023-02-28T07:00:24;4.10;;;2.83;;
9848;SDS011;4963;51.444;6.528;2023-02-28T07:02:51;4.17;;;3.07;;
9848;SDS011;4963;51.444;6.528;2023-02-28T07:05:20;7.87;;;2.90;;
9848;SDS011;4963;51.444;6.528;2023-02-28T07:07:46;4.90;;;3.20;;
9848;SDS011;4963;51.444;6.528;2023-02-28T07:10:13;4.67;;;3.10;;
9848;SDS011;4963;51.444;6.528;2023-02-28T07:12:41;6.93;;;3.30;;
9848;SDS011;4963;51.444;6.528;2023-02-28T07:15:10;6.87;;;3.50;;
9848;SDS011;4963;51.444;6.528;2023-02-28T07:17:37;9.20;;;3.60;;
9848;SDS011;4963;51.444;6.528;2023-02-28T07:20:05;7.07;;;3.50;;
9848;SDS011;4963;51.444;6.528;2023-02-28T07:22:32;6.47;;;2.90;;
9848;SDS011;4963;51.444;6.528;2023-02-28T07:24:59;5.77;;;3.50;;
9848;SDS011;4963;51.444;6.528;2023-02-28T07:27:25;4.20;;;3.33;;
9848;SDS011;4963;51.444;6.528;2023-02-28T07:29:52;6.63;;;3.30;;
9848;SDS011;4963;51.444;6.528;2023-02-28T07:32:21;5.70;;;3.20;;
9848;SDS011;4963;51.444;6.528;2023-02-28T07:34:48;4.13;;;3.00;;
9848;SDS011;4963;51.444;6.528;2023-02-28T07:37:15;6.10;;;2.90;;
9848;SDS011;4963;51.444;6.528;2023-02-28T07:39:41;4.70;;;2.80;;
9848;SDS011;4963;51.444;6.528;2023-02-28T07:42:08;4.90;;;2.93;;
9848;SDS011;4963;51.444;6.528;2023-02-28T07:44:37;6.77;;;2.90;;
9848;SDS011;4963;51.444;6.528;2023-02-28T07:47:05;5.07;;;3.37;;
9848;SDS011;4963;51.444;6.528;2023-02-28T07:49:35;5.93;;;3.47;;
9848;SDS011;4963;51.444;6.528;2023-02-28T07:52:02;5.43;;;3.00;;
9848;SDS011;4963;51.444;6.528;2023-02-28T07:54:30;5.17;;;3.23;;
9848;SDS011;4963;51.444;6.528;2023-02-28T07:56:57;4.90;;;3.27;;
9848;SDS011;4963;51.444;6.528;2023-02-28T07:59:23;5.03;;;3.23;;
9848;SDS011;4963;51.444;6.528;2023-02-28T08:01:50;4.63;;;3.20;;
9848;SDS011;4963;51.444;6.528;2023-02-28T08:04:17;7.10;;;3.53;;
9848;SDS011;4963;51.444;6.528;2023-02-28T08:06:46;7.53;;;2.87;;
9848;SDS011;4963;51.444;6.528;2023-02-28T08:09:12;5.03;;;3.47;;
9848;SDS011;4963;51.444;6.528;2023-02-28T08:11:39;7.23;;;3.20;;
9848;SDS011;4963;51.444;6.528;2023-02-28T08:14:06;6.00;;;3.53;;
9848;SDS011;4963;51.444;6.528;2023-02-28T08:16:33;5.67;;;3.20;;
9848;SDS011;4963;51.444;6.528;2023-02-28T08:19:00;5.70;;;2.83;;
9848;SDS011;4963;51.444;6.528;2023-02-28T08:21:26;5.43;;;2.90;;
9848;SDS011;4963;51.444;6.528;2023-02-28T08:23:54;6.50;;;3.00;;
9848;SDS011;4963;51.444;6.528;2023-02-28T08:26:22;5.67;;;3.03;;
9848;SDS011;4963;51.444;6.528;2023-02-28T08:28:49;5.37;;;2.70;;
9848;SDS011;4963;51.444;6.528;2023-02-28T08:31:16;3.93;;;2.80;;
9848;SDS011;4963;51.444;6.528;2023-02-28T08:33:43;4.03;;;2.83;;
9848;SDS011;4963;51.444;6.528;2023-02-28T08:36:10;6.27;;;2.77;;
9848;SDS011;4963;51.444;6.528;2023-02-28T08:38:37;3.37;;;2.60;;
9848;SDS011;4963;51.444;6.528;2023-02-28T08:41:06;4.97;;;3.30;;
9848;SDS011;4963;51.444;6.528;2023-02-28T08:43:36;6.53;;;2.67;;
9848;SDS011;4963;51.444;6.528;2023-02-28T08:46:04;6.20;;;2.93;;
9848;SDS011;4963;51.444;6.528;2023-02-28T08:48:32;6.60;;;2.77;;
9848;SDS011;4963;51.444;6.528;2023-02-28T08:51:01;4.33;;;2.80;;
9848;SDS011;4963;51.444;6.528;2023-02-28T08:53:30;2.90;;;2.30;;
9848;SDS011;4963;51.444;6.528;2023-02-28T08:55:58;4.47;;;2.60;;
9848;SDS011;4963;51.444;6.528;2023-02-28T08:58:27;7.97;;;3.50;;
9848;SDS011;4963;51.444;6.528;2023-02-28T09:00:54;4.73;;;2.57;;
9848;SDS011;4963;51.444;6.528;2023-02-28T09:03:21;5.57;;;2.70;;
9848;SDS011;4963;51.444;6.528;2023-02-28T09:05:53;3.47;;;2.37;;
9848;SDS011;4963;51.444;6.528;2023-02-28T09:08:21;5.23;;;2.80;;
9848;SDS011;4963;51.444;6.528;2023-02-28T09:10:48;4.80;;;2.30;;
9848;SDS011;4963;51.444;6.528;2023-02-28T09:13:15;3.47;;;1.90;;
9848;SDS011;4963;51.444;6.528;2023-02-28T09:15:43;4.00;;;2.67;;
9848;SDS011;4963;51.444;6.528;2023-02-28T09:18:10;5.03;;;2.30;;
9848;SDS011;4963;51.444;6.528;2023-02-28T09:20:37;6.20;;;2.37;;
9848;SDS011;4963;51.444;6.528;2023-02-28T09:23:05;3.83;;;2.13;;
9848;SDS011;4963;51.444;6.528;2023-02-28T09:25:32;3.37;;;1.90;;
9848;SDS011;4963;51.444;6.528;2023-02-28T09:27:59;3.77;;;2.37;;
9848;SDS011;4963;51.444;6.528;2023-02-28T09:30:26;4.33;;;2.57;;
9848;SDS011;4963;51.444;6.528;2023-02-28T09:32:54;3.37;;;2.20;;
9848;SDS011;4963;51.444;6.528;2023-02-28T09:35:21;3.73;;;2.40;;
9848;SDS011;4963;51.444;6.528;2023-02-28T09:37:49;4.40;;;2.20;;
9848;SDS011;4963;51.444;6.528;2023-02-28T09:40:17;4.93;;;2.37;;
9848;SDS011;4963;51.444;6.528;2023-02-28T09:42:47;5.03;;;2.30;;
9848;SDS011;4963;51.444;6.528;2023-02-28T09:45:18;2.97;;;1.90;;
9848;SDS011;4963;51.444;6.528;2023-02-28T09:47:49;3.20;;;1.97;;
9848;SDS011;4963;51.444;6.528;2023-02-28T09:50:21;3.03;;;1.80;;
9848;SDS011;4963;51.444;6.528;2023-02-28T09:52:55;3.00;;;1.90;;
9848;SDS011;4963;51.444;6.528;2023-02-28T09:55:25;2.37;;;1.67;;
9848;SDS011;4963;51.444;6.528;2023-02-28T09:57:56;3.73;;;2.17;;
9848;SDS011;4963;51.444;6.528;2023-02-28T10:00:27;2.73;;;1.90;;
9848;SDS011;4963;51.444;6.528;2023-02-28T10:03:04;4.43;;;1.83;;
9848;SDS011;4963;51.444;6.528;2023-02-28T10:05:41;2.57;;;1.70;;
9848;SDS011;4963;51.444;6.528;2023-02-28T10:08:15;4.00;;;2.00;;
9848;SDS011;4963;51.444;6.528;2023-02-28T10:10:45;4.23;;;1.90;;
9848;SDS011;4963;51.444;6.528;2023-02-28T10:13:19;4.67;;;1.43;;
9848;SDS011;4963;51.444;6.528;2023-02-28T10:15:52;2.87;;;1.60;;
9848;SDS011;4963;51.444;6.528;2023-02-28T10:18:24;2.60;;;1.80;;
9848;SDS011;4963;51.444;6.528;2023-02-28T10:20:57;3.23;;;1.67;;
9848;SDS011;4963;51.444;6.528;2023-02-28T10:23:26;3.67;;;1.90;;
9848;SDS011;4963;51.444;6.528;2023-02-28T10:25:58;5.60;;;1.70;;
9848;SDS011;4963;51.444;6.528;2023-02-28T10:28:31;3.50;;;1.80;;
9848;SDS011;4963;51.444;6.528;2023-02-28T10:30:58;4.90;;;1.93;;
9848;SDS011;4963;51.444;6.528;2023-02-28T10:33:27;3.17;;;2.27;;
9848;SDS011;4963;51.444;6.528;2023-02-28T10:35:57;6.37;;;2.30;;
9848;SDS011;4963;51.444;6.528;2023-02-28T10:38:25;2.87;;;1.50;;
9848;SDS011;4963;51.444;6.528;2023-02-28T10:41:03;3.07;;;1.83;;
9848;SDS011;4963;51.444;6.528;2023-02-28T10:43:31;2.77;;;1.70;;
9848;SDS011;4963;51.444;6.528;2023-02-28T10:45:59;2.57;;;1.87;;
9848;SDS011;4963;51.444;6.528;2023-02-28T10:48:36;2.73;;;1.83;;
9848;SDS011;4963;51.444;6.528;2023-02-28T10:51:06;4.20;;;1.80;;
9848;SDS011;4963;51.444;6.528;2023-02-28T10:53:36;2.90;;;1.60;;
9848;SDS011;4963;51.444;6.528;2023-02-28T10:56:14;3.50;;;1.70;;
9848;SDS011;4963;51.444;6.528;2023-02-28T10:58:46;2.77;;;1.80;;
9848;SDS011;4963;51.444;6.528;2023-02-28T11:01:16;3.33;;;1.60;;
9848;SDS011;4963;51.444;6.528;2023-02-28T11:03:45;2.80;;;1.70;;
9848;SDS011;4963;51.444;6.528;2023-02-28T11:06:15;3.03;;;1.80;;
9848;SDS011;4963;51.444;6.528;2023-02-28T11:08:45;3.40;;;1.60;;
9848;SDS011;4963;51.444;6.528;2023-02-28T11:11:13;4.00;;;1.70;;
9848;SDS011;4963;51.444;6.528;2023-02-28T11:13:42;2.67;;;1.70;;
9848;SDS011;4963;51.444;6.528;2023-02-28T11:16:11;3.20;;;2.10;;
9848;SDS011;4963;51.444;6.528;2023-02-28T11:18:41;3.03;;;1.67;;
9848;SDS011;4963;51.444;6.528;2023-02-28T11:21:14;1.93;;;1.60;;
9848;SDS011;4963;51.444;6.528;2023-02-28T11:23:45;3.00;;;1.67;;
9848;SDS011;4963;51.444;6.528;2023-02-28T11:26:15;3.03;;;1.80;;
9848;SDS011;4963;51.444;6.528;2023-02-28T11:29:03;5.67;;;2.00;;
9848;SDS011;4963;51.444;6.528;2023-02-28T11:31:36;4.00;;;2.07;;
9848;SDS011;4963;51.444;6.528;2023-02-28T11:34:11;6.03;;;2.07;;
9848;SDS011;4963;51.444;6.528;2023-02-28T11:36:54;2.90;;;1.80;;
9848;SDS011;4963;51.444;6.528;2023-02-28T11:39:23;3.60;;;2.47;;
9848;SDS011;4963;51.444;6.528;2023-02-28T11:41:58;3.50;;;2.10;;
9848;SDS011;4963;51.444;6.528;2023-02-28T11:44:42;2.57;;;1.80;;
9848;SDS011;4963;51.444;6.528;2023-02-28T11:47:28;3.07;;;2.00;;
9848;SDS011;4963;51.444;6.528;2023-02-28T11:50:05;4.73;;;1.90;;
9848;SDS011;4963;51.444;6.528;2023-02-28T11:52:45;5.17;;;1.97;;
9848;SDS011;4963;51.444;6.528;2023-02-28T11:55:19;2.30;;;1.67;;
9848;SDS011;4963;51.444;6.528;2023-02-28T11:57:56;3.77;;;1.87;;
9848;SDS011;4963;51.444;6.528;2023-02-28T12:00:37;3.60;;;2.10;;
9848;SDS011;4963;51.444;6.528;2023-02-28T12:03:19;3.70;;;2.50;;
9848;SDS011;4963;51.444;6.528;2023-02-28T12:05:54;5.20;;;1.70;;
9848;SDS011;4963;51.444;6.528;2023-02-28T12:08:38;3.37;;;2.00;;
9848;SDS011;4963;51.444;6.528;2023-02-28T12:11:14;2.80;;;1.97;;
9848;SDS011;4963;51.444;6.528;2023-02-28T12:13:53;2.17;;;1.70;;
9848;SDS011;4963;51.444;6.528;2023-02-28T12:16:38;6.73;;;2.20;;
9848;SDS011;4963;51.444;6.528;2023-02-28T12:19:18;2.00;;;1.40;;
9848;SDS011;4963;51.444;6.528;2023-02-28T12:21:55;3.40;;;1.57;;
9848;SDS011;4963;51.444;6.528;2023-02-28T12:24:43;2.57;;;1.60;;
9848;SDS011;4963;51.444;6.528;2023-02-28T12:27:19;3.60;;;1.93;;
9848;SDS011;4963;51.444;6.528;2023-02-28T12:29:51;2.80;;;1.87;;
9848;SDS011;4963;51.444;6.528;2023-02-28T12:32:24;2.23;;;2.00;;
9848;SDS011;4963;51.444;6.528;2023-02-28T12:34:55;4.70;;;2.33;;
9848;SDS011;4963;51.444;6.528;2023-02-28T12:37:24;4.63;;;2.17;;
9848;SDS011;4963;51.444;6.528;2023-02-28T12:40:00;3.00;;;1.90;;
9848;SDS011;4963;51.444;6.528;2023-02-28T12:42:31;3.17;;;1.60;;
9848;SDS011;4963;51.444;6.528;2023-02-28T12:45:02;8.20;;;2.20;;
9848;SDS011;4963;51.444;6.528;2023-02-28T12:47:34;3.07;;;2.30;;
9848;SDS011;4963;51.444;6.528;2023-02-28T12:50:02;5.07;;;2.40;;
9848;SDS011;4963;51.444;6.528;2023-02-28T12:52:35;3.40;;;2.10;;
9848;SDS011;4963;51.444;6.528;2023-02-28T12:55:13;2.83;;;1.83;;
9848;SDS011;4963;51.444;6.528;2023-02-28T12:57:48;4.67;;;1.90;;
9848;SDS011;4963;51.444;6.528;2023-02-28T13:00:20;3.40;;;2.07;;
9848;SDS011;4963;51.444;6.528;2023-02-28T13:09:02;6.37;;;1.90;;
9848;SDS011;4963;51.444;6.528;2023-02-28T13:11:39;4.47;;;2.07;;
9848;SDS011;4963;51.444;6.528;2023-02-28T13:14:20;4.77;;;2.17;;
9848;SDS011;4963;51.444;6.528;2023-02-28T13:16:52;3.10;;;2.23;;
9848;SDS011;4963;51.444;6.528;2023-02-28T13:19:23;2.63;;;2.10;;
9848;SDS011;4963;51.444;6.528;2023-02-28T13:21:52;3.63;;;2.13;;
9848;SDS011;4963;51.444;6.528;2023-02-28T13:33:26;4.77;;;2.60;;
9848;SDS011;4963;51.444;6.528;2023-02-28T13:36:10;2.93;;;2.03;;
9848;SDS011;4963;51.444;6.528;2023-02-28T13:38:51;2.57;;;2.03;;
9848;SDS011;4963;51.444;6.528;2023-02-28T13:44:16;3.30;;;2.23;;
9848;SDS011;4963;51.444;6.528;2023-02-28T13:49:47;3.10;;;2.40;;
9848;SDS011;4963;51.444;6.528;2023-02-28T13:52:16;3.10;;;1.97;;
9848;SDS011;4963;51.444;6.528;2023-02-28T13:54:54;3.13;;;2.30;;
9848;SDS011;4963;51.444;6.528;2023-02-28T13:57:41;3.27;;;2.40;;
9848;SDS011;4963;51.444;6.528;2023-02-28T14:00:23;4.00;;;2.50;;
9848;SDS011;4963;51.444;6.528;2023-02-28T14:03:01;3.03;;;2.67;;
9848;SDS011;4963;51.444;6.528;2023-02-28T14:05:38;4.63;;;2.50;;
9848;SDS011;4963;51.444;6.528;2023-02-28T14:08:06;6.70;;;3.23;;
9848;SDS011;4963;51.444;6.528;2023-02-28T14:10:42;3.17;;;1.80;;
9848;SDS011;4963;51.444;6.528;2023-02-28T14:13:12;2.70;;;2.10;;
9848;SDS011;4963;51.444;6.528;2023-02-28T14:15:59;4.53;;;2.83;;
9848;SDS011;4963;51.444;6.528;2023-02-28T14:18:28;4.47;;;2.60;;
9848;SDS011;4963;51.444;6.528;2023-02-28T14:20:58;4.57;;;2.57;;
9848;SDS011;4963;51.444;6.528;2023-02-28T14:23:40;3.33;;;2.47;;
9848;SDS011;4963;51.444;6.528;2023-02-28T14:26:31;3.77;;;2.47;;
9848;SDS011;4963;51.444;6.528;2023-02-28T14:29:26;3.57;;;2.53;;
9848;SDS011;4963;51.444;6.528;2023-02-28T14:32:03;4.00;;;2.77;;
9848;SDS011;4963;51.444;6.528;2023-02-28T14:34:39;4.60;;;3.00;;
9848;SDS011;4963;51.444;6.528;2023-02-28T14:37:14;5.43;;;2.40;;
9848;SDS011;4963;51.444;6.528;2023-02-28T14:39:45;3.03;;;2.37;;
9848;SDS011;4963;51.444;6.528;2023-02-28T14:42:28;2.67;;;2.33;;
9848;SDS011;4963;51.444;6.528;2023-02-28T14:44:57;3.53;;;2.40;;
9848;SDS011;4963;51.444;6.528;2023-02-28T14:47:27;3.20;;;2.40;;
9848;SDS011;4963;51.444;6.528;2023-02-28T14:49:56;5.23;;;2.50;;
9848;SDS011;4963;51.444;6.528;2023-02-28T14:52:24;3.53;;;2.60;;
9848;SDS011;4963;51.444;6.528;2023-02-28T14:54:54;3.13;;;2.53;;
9848;SDS011;4963;51.444;6.528;2023-02-28T14:57:24;3.93;;;3.00;;
9848;SDS011;4963;51.444;6.528;2023-02-28T14:59:59;5.37;;;2.80;;
9848;SDS011;4963;51.444;6.528;2023-02-28T15:02:31;4.13;;;2.50;;
9848;SDS011;4963;51.444;6.528;2023-02-28T15:05:01;3.70;;;2.27;;
9848;SDS011;4963;51.444;6.528;2023-02-28T15:07:42;3.20;;;2.40;;
9848;SDS011;4963;51.444;6.528;2023-02-28T15:10:10;3.13;;;2.37;;
9848;SDS011;4963;51.444;6.528;2023-02-28T15:12:49;3.33;;;2.40;;
9848;SDS011;4963;51.444;6.528;2023-02-28T15:15:19;3.40;;;2.47;;
9848;SDS011;4963;51.444;6.528;2023-02-28T15:17:49;3.63;;;2.90;;
9848;SDS011;4963;51.444;6.528;2023-02-28T15:20:19;4.10;;;2.57;;
9848;SDS011;4963;51.444;6.528;2023-02-28T15:22:46;6.20;;;2.97;;
9848;SDS011;4963;51.444;6.528;2023-02-28T15:25:18;3.73;;;2.63;;
9848;SDS011;4963;51.444;6.528;2023-02-28T15:27:47;4.13;;;2.73;;
9848;SDS011;4963;51.444;6.528;2023-02-28T15:30:17;5.17;;;2.50;;
9848;SDS011;4963;51.444;6.528;2023-02-28T15:32:46;3.13;;;2.60;;
9848;SDS011;4963;51.444;6.528;2023-02-28T15:35:32;3.47;;;3.00;;
9848;SDS011;4963;51.444;6.528;2023-02-28T15:38:00;7.67;;;2.80;;
9848;SDS011;4963;51.444;6.528;2023-02-28T15:40:31;2.67;;;2.30;;
9848;SDS011;4963;51.444;6.528;2023-02-28T15:43:05;4.27;;;2.03;;
9848;SDS011;4963;51.444;6.528;2023-02-28T15:45:40;4.30;;;2.10;;
9848;SDS011;4963;51.444;6.528;2023-02-28T15:48:14;3.90;;;2.40;;
9848;SDS011;4963;51.444;6.528;2023-02-28T15:50:46;2.90;;;2.60;;
9848;SDS011;4963;51.444;6.528;2023-02-28T15:53:15;4.47;;;2.30;;
9848;SDS011;4963;51.444;6.528;2023-02-28T15:55:44;5.10;;;2.70;;
9848;SDS011;4963;51.444;6.528;2023-02-28T15:58:17;3.60;;;2.67;;
9848;SDS011;4963;51.444;6.528;2023-02-28T16:00:59;11.47;;;5.20;;